Time;durP1;ratioP1;P1;durP2;ratioP2;P2;SDS_P1;SDS_P2;PMS_P1;PMS_P2;Temp;Humidity;BMP_temperature;BMP_pressure;BME280_temperature;BME280_humidity;BME280_pressure;Samples;Min_cycle;Max_cycle;Signal;HPM_P1;HPM_P2
2021/01/09 00:00:05;;;;;;;;;;;;;;;-0.23;81.01;98770.66;2127073;83;20514;-65
2021/01/09 00:03:08;;;;;;;;;;;;;;;-0.30;81.19;98773.34;2127179;83;20153;-65
2021/01/09 00:06:11;;;;;;;;;;;;;;;-0.33;81.42;98773.41;2127168;83;20231;-66
2021/01/09 00:09:13;;;;;;;;;;;;;;;-0.37;81.57;98777.33;2127072;83;20499;-64
2021/01/09 00:12:15;;;;;;;;;;;;;;;-0.41;81.71;98775.69;2127210;83;20223;-66
2021/01/09 00:15:17;;;;;;;;;;;;;;;-0.42;81.83;98775.27;2127199;84;20495;-66
2021/01/09 00:18:19;;;;;;;;;;;;;;;-0.41;82.02;98770.98;2129644;83;20226;-64
2021/01/09 00:21:21;;;;;;;;;;;;;;;-0.45;82.48;98775.31;2116817;83;20267;-64
2021/01/09 00:24:23;;;;;;;;;;;;;;;-0.50;82.49;98774.98;2143786;83;20269;-64
2021/01/09 00:27:26;;;;;;;;;;;;;;;-0.47;82.80;98771.93;2143884;83;20234;-65
2021/01/09 00:30:28;;;;;;;;;;;;;;;-0.45;82.83;98775.31;2143808;83;20256;-64
2021/01/09 00:33:30;;;;;;;;;;;;;;;-0.43;82.97;98773.58;2143774;83;20137;-64
2021/01/09 00:36:33;;;;;;;;;;;;;;;-0.42;82.96;98773.13;2143861;83;20536;-64
2021/01/09 00:39:35;;;;;;;;;;;;;;;-0.39;82.91;98774.36;2144007;83;20255;-64
2021/01/09 00:42:37;;;;;;;;;;;;;;;-0.38;82.78;98779.94;2144010;83;20244;-65
2021/01/09 00:45:39;;;;;;;;;;;;;;;-0.35;83.01;98783.30;2144239;83;20287;-65
2021/01/09 00:48:41;;;;;;;;;;;;;;;-0.32;83.01;98775.12;2144248;83;20231;-64
2021/01/09 00:51:43;;;;;;;;;;;;;;;-0.27;82.91;98778.03;2143906;83;20663;-64
2021/01/09 00:54:45;;;;;;;;;;;;;;;-0.24;82.96;98782.28;2143821;83;20144;-64
2021/01/09 00:57:48;;;;;;;;;;;;;;;-0.25;82.96;98774.97;2144260;83;20237;-64
2021/01/09 01:00:50;;;;;;;;;;;;;;;-0.24;83.10;98773.27;2144029;83;20227;-64
2021/01/09 01:03:52;;;;;;;;;;;;;;;-0.24;83.07;98772.81;2143933;83;20228;-64
2021/01/09 01:06:54;;;;;;;;;;;;;;;-0.20;83.26;98774.46;2143808;83;20180;-64
2021/01/09 01:09:56;;;;;;;;;;;;;;;-0.19;83.41;98777.46;2144014;83;20148;-64
2021/01/09 01:12:59;;;;;;;;;;;;;;;-0.18;83.39;98779.14;2143896;83;20526;-64
2021/01/09 01:16:01;;;;;;;;;;;;;;;-0.15;83.37;98778.23;2143826;83;20131;-64
2021/01/09 01:19:03;;;;;;;;;;;;;;;-0.16;83.29;98780.39;2138768;83;20499;-64
2021/01/09 01:22:06;;;;;;;;;;;;;;;-0.21;83.68;98778.36;2127557;83;20136;-67
2021/01/09 01:25:08;;;;;;;;;;;;;;;-0.24;83.61;98777.12;2127147;83;20160;-65
2021/01/09 01:28:10;;;;;;;;;;;;;;;-0.23;83.67;98783.97;2127589;83;20141;-66
2021/01/09 01:31:12;;;;;;;;;;;;;;;-0.22;83.97;98783.09;2127182;83;20240;-68
2021/01/09 01:34:14;;;;;;;;;;;;;;;-0.21;83.88;98788.67;2106849;84;20444;-66
2021/01/09 01:37:17;;;;;;;;;;;;;;;-0.23;84.16;98783.97;2127121;83;20506;-65
2021/01/09 01:40:19;;;;;;;;;;;;;;;-0.23;84.10;98778.81;2127545;84;20235;-68
2021/01/09 01:43:21;;;;;;;;;;;;;;;-0.21;84.31;98775.78;2127556;83;20125;-66
2021/01/09 01:46:38;;;;;;;;;;;;;;;-0.19;84.08;98783.03;2127455;84;20144;-66
2021/01/09 01:49:40;;;;;;;;;;;;;;;-0.23;84.23;98774.52;2127127;83;20220;-65
2021/01/09 01:52:43;;;;;;;;;;;;;;;-0.26;84.26;98782.31;2127331;84;20164;-66
2021/01/09 01:55:45;;;;;;;;;;;;;;;-0.32;84.82;98777.70;2127161;83;20274;-66
2021/01/09 01:58:47;;;;;;;;;;;;;;;-0.39;85.21;98776.52;2127120;83;20252;-64
2021/01/09 02:01:50;;;;;;;;;;;;;;;-0.42;85.26;98775.71;2127154;84;20504;-66
2021/01/09 02:04:52;;;;;;;;;;;;;;;-0.43;85.32;98772.71;2127430;84;20133;-68
2021/01/09 02:07:54;;;;;;;;;;;;;;;-0.47;85.85;98775.80;2127086;83;20180;-68
2021/01/09 02:10:56;;;;;;;;;;;;;;;-0.49;85.93;98777.53;2127279;84;20412;-65
2021/01/09 02:13:58;;;;;;;;;;;;;;;-0.54;85.96;98776.78;2127275;83;20228;-64
2021/01/09 02:17:00;;;;;;;;;;;;;;;-0.59;86.28;98777.28;2127087;84;20511;-65
2021/01/09 02:20:03;;;;;;;;;;;;;;;-0.62;86.42;98778.62;2132659;83;20231;-66
2021/01/09 02:23:05;;;;;;;;;;;;;;;-0.64;86.54;98780.39;2136821;83;20231;-64
2021/01/09 02:26:07;;;;;;;;;;;;;;;-0.68;86.85;98780.86;2137029;83;20502;-64
2021/01/09 02:29:09;;;;;;;;;;;;;;;-0.67;86.78;98787.72;2136858;83;20227;-64
2021/01/09 02:32:11;;;;;;;;;;;;;;;-0.69;87.24;98781.72;2137320;83;20267;-64
2021/01/09 02:35:13;;;;;;;;;;;;;;;-0.68;87.25;98784.72;2137346;83;20164;-65
2021/01/09 02:38:15;;;;;;;;;;;;;;;-0.69;86.98;98786.88;2137327;83;20140;-64
2021/01/09 02:41:18;;;;;;;;;;;;;;;-0.71;87.09;98783.48;2136847;83;20231;-65
2021/01/09 02:44:20;;;;;;;;;;;;;;;-0.69;87.24;98788.16;2137313;83;20136;-66
2021/01/09 02:47:22;;;;;;;;;;;;;;;-0.74;87.40;98792.11;2136902;83;20137;-64
2021/01/09 02:50:24;;;;;;;;;;;;;;;-0.75;87.30;98793.01;2137266;83;20438;-65
2021/01/09 02:53:26;;;;;;;;;;;;;;;-0.74;87.54;98789.53;2136812;83;20232;-65
2021/01/09 02:56:28;;;;;;;;;;;;;;;-0.70;87.61;98795.05;2137269;83;20128;-66
2021/01/09 02:59:31;;;;;;;;;;;;;;;-0.67;87.57;98797.19;2136979;83;20235;-64
2021/01/09 03:02:33;;;;;;;;;;;;;;;-0.68;87.46;98795.03;2136850;83;20256;-64
2021/01/09 03:05:35;;;;;;;;;;;;;;;-0.67;87.45;98792.03;2136973;83;20491;-64
2021/01/09 03:08:37;;;;;;;;;;;;;;;-0.72;87.88;98791.66;2137183;83;20124;-64
2021/01/09 03:11:39;;;;;;;;;;;;;;;-0.74;88.12;98792.55;2136970;83;20582;-64
2021/01/09 03:14:41;;;;;;;;;;;;;;;-0.77;87.98;98792.61;2136887;83;20228;-64
2021/01/09 03:17:44;;;;;;;;;;;;;;;-0.78;87.66;98793.03;2136965;83;20517;-64
2021/01/09 03:20:46;;;;;;;;;;;;;;;-0.79;88.01;98782.33;2129727;83;20235;-67
2021/01/09 03:23:48;;;;;;;;;;;;;;;-0.77;87.93;98788.75;2127454;83;20165;-65
2021/01/09 03:26:50;;;;;;;;;;;;;;;-0.74;87.87;98783.09;2127025;84;20149;-65
2021/01/09 03:29:52;;;;;;;;;;;;;;;-0.72;88.02;98785.23;2127347;84;20492;-65
2021/01/09 03:32:54;;;;;;;;;;;;;;;-0.70;87.89;98786.48;2127235;83;20260;-65
2021/01/09 03:35:57;;;;;;;;;;;;;;;-0.72;88.05;98786.52;2127462;84;20148;-64
2021/01/09 03:38:59;;;;;;;;;;;;;;;-0.71;88.41;98794.63;2127221;84;20492;-64
2021/01/09 03:42:01;;;;;;;;;;;;;;;-0.68;87.99;98790.32;2127195;83;20243;-64
2021/01/09 03:45:04;;;;;;;;;;;;;;;-0.67;88.05;98795.45;2106873;84;20153;-64
2021/01/09 03:48:07;;;;;;;;;;;;;;;-0.65;87.99;98796.71;2127137;83;20248;-65
2021/01/09 03:51:09;;;;;;;;;;;;;;;-0.61;87.86;98802.23;2127088;84;20424;-64
2021/01/09 03:54:11;;;;;;;;;;;;;;;-0.61;87.92;98800.94;2127443;83;20165;-64
2021/01/09 03:57:13;;;;;;;;;;;;;;;-0.63;87.71;98803.55;2127102;83;20588;-64
2021/01/09 04:00:15;;;;;;;;;;;;;;;-0.61;87.78;98802.23;2127308;84;20227;-64
2021/01/09 04:03:18;;;;;;;;;;;;;;;-0.63;87.85;98805.25;2126951;83;20228;-65
2021/01/09 04:06:20;;;;;;;;;;;;;;;-0.63;87.71;98802.67;2127094;83;20427;-65
2021/01/09 04:09:23;;;;;;;;;;;;;;;-0.60;87.98;98810.38;2127201;83;20248;-64
2021/01/09 04:12:25;;;;;;;;;;;;;;;-0.60;87.83;98807.81;2127143;83;20220;-65
2021/01/09 04:15:27;;;;;;;;;;;;;;;-0.58;87.78;98809.91;2127185;83;20248;-64
2021/01/09 04:18:29;;;;;;;;;;;;;;;-0.55;88.01;98817.58;2127103;83;20503;-66
2021/01/09 04:21:31;;;;;;;;;;;;;;;-0.61;88.19;98820.27;2141708;83;20251;-65
2021/01/09 04:24:33;;;;;;;;;;;;;;;-0.67;88.64;98821.66;2144641;83;20223;-66
2021/01/09 04:27:35;;;;;;;;;;;;;;;-0.72;88.64;98820.42;2144005;83;20231;-64
2021/01/09 04:30:38;;;;;;;;;;;;;;;-0.73;88.57;98819.58;2144033;83;20227;-65
2021/01/09 04:33:40;;;;;;;;;;;;;;;-0.74;88.80;98825.59;2143785;83;20195;-66
2021/01/09 04:36:42;;;;;;;;;;;;;;;-0.74;88.76;98827.33;2144043;83;20232;-67
2021/01/09 04:39:44;;;;;;;;;;;;;;;-0.74;88.82;98832.48;2144156;83;20275;-65
2021/01/09 04:42:46;;;;;;;;;;;;;;;-0.77;88.51;98829.95;2143886;83;20514;-68
2021/01/09 04:45:48;;;;;;;;;;;;;;;-0.80;88.52;98837.28;2144033;83;20231;-67
2021/01/09 04:48:50;;;;;;;;;;;;;;;-0.84;88.42;98839.94;2144131;83;20231;-65
2021/01/09 04:51:52;;;;;;;;;;;;;;;-0.85;88.88;98843.37;2144215;83;20235;-65
2021/01/09 04:54:55;;;;;;;;;;;;;;;-0.84;88.65;98836.91;2144118;83;20223;-65
2021/01/09 04:57:57;;;;;;;;;;;;;;;-0.80;88.74;98839.86;2144450;83;20270;-69
2021/01/09 05:00:59;;;;;;;;;;;;;;;-0.76;88.45;98840.66;2144070;83;20232;-66
2021/01/09 05:04:02;;;;;;;;;;;;;;;-0.71;88.28;98846.16;2144214;83;20223;-66
2021/01/09 05:07:05;;;;;;;;;;;;;;;-0.72;88.24;98858.64;2144129;83;20135;-65
2021/01/09 05:10:07;;;;;;;;;;;;;;;-0.73;88.10;98858.66;2143953;83;20219;-64
2021/01/09 05:13:10;;;;;;;;;;;;;;;-0.73;88.12;98862.53;2143953;83;20252;-66
2021/01/09 05:16:13;;;;;;;;;;;;;;;-0.75;87.90;98866.42;2144104;83;20447;-68
2021/01/09 05:19:16;;;;;;;;;;;;;;;-0.75;87.81;98861.27;2143426;83;20532;-68
2021/01/09 05:22:18;;;;;;;;;;;;;;;-0.75;87.67;98870.28;2127094;83;20141;-64
2021/01/09 05:25:21;;;;;;;;;;;;;;;-0.73;87.97;98867.23;2127559;83;20141;-65
2021/01/09 05:28:23;;;;;;;;;;;;;;;-0.72;87.81;98866.37;2127360;83;20223;-64
2021/01/09 05:31:25;;;;;;;;;;;;;;;-0.70;87.96;98874.91;2127116;83;20233;-64
2021/01/09 05:34:27;;;;;;;;;;;;;;;-0.68;87.61;98872.76;2127600;84;20232;-66
2021/01/09 05:37:29;;;;;;;;;;;;;;;-0.70;87.71;98874.91;2127205;83;20503;-66
2021/01/09 05:40:31;;;;;;;;;;;;;;;-0.69;87.58;98880.91;2127098;84;20233;-64
2021/01/09 05:43:33;;;;;;;;;;;;;;;-0.70;87.70;98879.22;2127567;84;20168;-65
2021/01/09 05:46:35;;;;;;;;;;;;;;;-0.70;87.90;98885.22;2127334;83;20582;-65
2021/01/09 05:49:37;;;;;;;;;;;;;;;-0.70;87.87;98894.68;2127112;83;20232;-65
2021/01/09 05:52:39;;;;;;;;;;;;;;;-0.72;88.18;98901.14;2127056;83;20275;-66
2021/01/09 05:55:42;;;;;;;;;;;;;;;-0.68;87.95;98894.20;2127232;83;20460;-65
2021/01/09 05:58:44;;;;;;;;;;;;;;;-0.62;87.82;98893.27;2127345;83;20260;-65
2021/01/09 06:01:46;;;;;;;;;;;;;;;-0.60;87.68;98896.70;2127486;83;20260;-65
2021/01/09 06:04:48;;;;;;;;;;;;;;;-0.60;87.48;98904.42;2127224;83;20228;-65
2021/01/09 06:07:50;;;;;;;;;;;;;;;-0.63;87.55;98901.86;2127179;83;20232;-64
2021/01/09 06:10:52;;;;;;;;;;;;;;;-0.62;87.59;98903.58;2127561;83;20149;-65
2021/01/09 06:13:54;;;;;;;;;;;;;;;-0.65;87.52;98898.03;2127061;84;20275;-64
2021/01/09 06:16:56;;;;;;;;;;;;;;;-0.66;87.72;98907.94;2127074;83;20232;-64
2021/01/09 06:19:59;;;;;;;;;;;;;;;-0.68;87.67;98910.11;2130174;83;20483;-64
2021/01/09 06:23:02;;;;;;;;;;;;;;;-0.72;87.92;98914.03;2143917;83;20227;-64
2021/01/09 06:26:04;;;;;;;;;;;;;;;-0.74;87.93;98921.35;2143912;83;20234;-64
2021/01/09 06:29:07;;;;;;;;;;;;;;;-0.74;87.99;98922.64;2144380;83;20232;-64
2021/01/09 06:32:11;;;;;;;;;;;;;;;-0.72;88.08;98923.05;2142371;83;20239;-65
2021/01/09 06:35:13;;;;;;;;;;;;;;;-0.70;87.95;98929.02;2144377;83;20227;-65
2021/01/09 06:38:15;;;;;;;;;;;;;;;-0.68;87.82;98931.56;2143907;83;20247;-65
2021/01/09 06:41:17;;;;;;;;;;;;;;;-0.70;87.91;98934.61;2143843;83;20235;-65
2021/01/09 06:44:19;;;;;;;;;;;;;;;-0.66;87.97;98934.12;2143975;83;20482;-65
2021/01/09 06:47:21;;;;;;;;;;;;;;;-0.62;87.94;98942.22;2143886;83;20228;-64
2021/01/09 06:50:23;;;;;;;;;;;;;;;-0.62;88.04;98944.35;2143910;83;20135;-66
2021/01/09 06:53:26;;;;;;;;;;;;;;;-0.63;87.86;98946.53;2144339;83;20144;-67
2021/01/09 06:56:28;;;;;;;;;;;;;;;-0.63;87.99;98943.09;2144149;83;20235;-67
2021/01/09 06:59:30;;;;;;;;;;;;;;;-0.60;88.02;98952.09;2144114;83;20252;-64
2021/01/09 07:02:33;;;;;;;;;;;;;;;-0.60;88.02;98949.52;2143837;83;20499;-66
2021/01/09 07:05:35;;;;;;;;;;;;;;;-0.61;88.09;98950.38;2144100;83;20243;-66
2021/01/09 07:08:40;;;;;;;;;;;;;;;-0.59;88.14;98949.48;2143988;83;20225;-68
2021/01/09 07:11:42;;;;;;;;;;;;;;;-0.57;88.03;98957.20;2143975;83;20490;-67
2021/01/09 07:14:44;;;;;;;;;;;;;;;-0.54;87.94;98956.70;2143949;83;20259;-64
2021/01/09 07:17:46;;;;;;;;;;;;;;;-0.50;88.04;98956.23;2144331;83;20227;-66
2021/01/09 07:20:48;;;;;;;;;;;;;;;-0.43;87.91;98963.02;2143874;83;20246;-70
2021/01/09 07:23:50;;;;;;;;;;;;;;;-0.37;87.73;98963.36;2144111;83;20226;-66
2021/01/09 07:26:53;;;;;;;;;;;;;;;-0.31;87.72;98967.13;2143829;83;20160;-66
2021/01/09 07:29:55;;;;;;;;;;;;;;;-0.29;87.60;98975.68;2143995;83;20530;-65
2021/01/09 07:32:57;;;;;;;;;;;;;;;-0.26;87.60;98974.79;2143836;83;20124;-66
2021/01/09 07:35:59;;;;;;;;;;;;;;;-0.21;87.54;98984.61;2144100;83;20233;-65
2021/01/09 07:39:01;;;;;;;;;;;;;;;-0.18;87.43;98988.42;2143964;83;20140;-67
2021/01/09 07:42:03;;;;;;;;;;;;;;;-0.19;87.43;98995.32;2143884;83;20310;-65
2021/01/09 07:45:06;;;;;;;;;;;;;;;-0.18;87.48;98998.30;2143852;83;20140;-66
2021/01/09 07:48:08;;;;;;;;;;;;;;;-0.12;87.41;99001.22;2144041;83;20133;-64
2021/01/09 07:51:10;;;;;;;;;;;;;;;-0.08;87.31;98993.86;2144238;83;20231;-64
2021/01/09 07:54:13;;;;;;;;;;;;;;;-0.08;87.17;99005.46;2143772;83;20136;-64
2021/01/09 07:57:15;;;;;;;;;;;;;;;-0.07;87.14;99001.14;2143929;83;20513;-64
2021/01/09 08:00:17;;;;;;;;;;;;;;;-0.06;87.12;99005.02;2144065;83;20231;-64
2021/01/09 08:03:19;;;;;;;;;;;;;;;-0.02;87.06;99004.07;2144282;83;20251;-64
2021/01/09 08:06:22;;;;;;;;;;;;;;;-0.03;86.92;99008.83;2144301;83;20247;-64
2021/01/09 08:09:24;;;;;;;;;;;;;;;-0.06;86.88;99012.75;2144101;83;20258;-67
2021/01/09 08:12:26;;;;;;;;;;;;;;;-0.05;86.97;99014.44;2144249;83;20231;-66
2021/01/09 08:15:28;;;;;;;;;;;;;;;0.01;86.93;99010.91;2144281;83;20235;-64
2021/01/09 08:18:31;;;;;;;;;;;;;;;0.02;86.80;99016.95;2143951;83;20510;-65
2021/01/09 08:21:34;;;;;;;;;;;;;;;-0.01;86.85;99017.84;2143774;83;20502;-65
2021/01/09 08:24:36;;;;;;;;;;;;;;;-0.05;86.83;99020.88;2143942;83;20231;-67
2021/01/09 08:27:38;;;;;;;;;;;;;;;-0.07;87.02;99025.64;2143797;83;20165;-66
2021/01/09 08:30:40;;;;;;;;;;;;;;;-0.07;87.03;99015.33;2144294;83;20274;-64
2021/01/09 08:33:44;;;;;;;;;;;;;;;-0.04;87.11;99013.56;2143974;83;20136;-64
2021/01/09 08:36:46;;;;;;;;;;;;;;;-0.05;86.99;99019.59;2143785;83;20282;-67
2021/01/09 08:39:49;;;;;;;;;;;;;;;-0.03;86.99;99019.56;2143756;83;20140;-66
2021/01/09 08:42:51;;;;;;;;;;;;;;;0.00;86.89;99023.42;2143788;83;20136;-65
2021/01/09 08:45:53;;;;;;;;;;;;;;;-0.03;86.80;99026.89;2144288;83;20152;-65
2021/01/09 08:48:56;;;;;;;;;;;;;;;-0.05;86.95;99024.75;2143756;83;20439;-65
2021/01/09 08:51:58;;;;;;;;;;;;;;;-0.01;86.96;99030.73;2143762;83;20124;-64
2021/01/09 08:55:00;;;;;;;;;;;;;;;-0.01;86.94;99033.31;2144272;83;20132;-66
2021/01/09 08:58:03;;;;;;;;;;;;;;;0.04;86.97;99033.23;2143920;83;20527;-66
2021/01/09 09:01:05;;;;;;;;;;;;;;;0.09;86.95;99032.30;2143872;83;20723;-64
2021/01/09 09:04:07;;;;;;;;;;;;;;;0.09;87.00;99040.03;2144249;83;20144;-64
2021/01/09 09:07:09;;;;;;;;;;;;;;;0.17;87.18;99033.45;2116764;83;20144;-64
2021/01/09 09:10:12;;;;;;;;;;;;;;;0.22;87.05;99039.86;2143979;83;20439;-64
2021/01/09 09:13:14;;;;;;;;;;;;;;;0.32;86.94;99035.80;2144002;83;20266;-65
2021/01/09 09:16:16;;;;;;;;;;;;;;;0.33;86.91;99028.90;2144093;83;20276;-66
2021/01/09 09:19:18;;;;;;;;;;;;;;;0.40;86.74;99032.24;2143839;83;20223;-66
2021/01/09 09:22:22;;;;;;;;;;;;;;;0.40;86.78;99029.22;2141768;82;20132;-65
2021/01/09 09:25:24;;;;;;;;;;;;;;;0.43;86.77;99029.19;2144029;83;20171;-64
2021/01/09 09:28:26;;;;;;;;;;;;;;;0.50;86.60;99031.21;2143779;83;20168;-66
2021/01/09 09:31:29;;;;;;;;;;;;;;;0.50;86.54;99022.17;2144210;83;20227;-65
2021/01/09 09:34:31;;;;;;;;;;;;;;;0.56;86.55;99028.55;2116800;83;20235;-66
2021/01/09 09:37:33;;;;;;;;;;;;;;;0.53;86.36;99025.15;2144297;83;20223;-68
2021/01/09 09:40:35;;;;;;;;;;;;;;;0.50;86.38;99020.47;2144186;83;20140;-65
2021/01/09 09:43:37;;;;;;;;;;;;;;;0.47;86.37;99023.52;2143924;83;20219;-64
2021/01/09 09:46:39;;;;;;;;;;;;;;;0.44;86.35;99021.84;2143977;83;20286;-65
2021/01/09 09:49:42;;;;;;;;;;;;;;;0.41;86.54;99020.60;2144329;83;20486;-66
2021/01/09 09:52:44;;;;;;;;;;;;;;;0.43;86.47;99023.16;2144377;83;20258;-65
2021/01/09 09:55:46;;;;;;;;;;;;;;;0.52;86.28;99023.02;2144040;83;20495;-66
2021/01/09 09:58:48;;;;;;;;;;;;;;;0.54;85.93;99025.57;2144054;83;20487;-66
2021/01/09 10:01:51;;;;;;;;;;;;;;;0.50;86.08;99023.47;2143897;83;20223;-68
2021/01/09 10:04:53;;;;;;;;;;;;;;;0.47;86.19;99016.62;2144067;83;20435;-65
2021/01/09 10:07:55;;;;;;;;;;;;;;;0.49;86.29;99019.20;2143941;83;20535;-64
2021/01/09 10:10:57;;;;;;;;;;;;;;;0.48;86.17;99018.33;2144030;83;20219;-64
2021/01/09 10:14:01;;;;;;;;;;;;;;;0.48;86.27;99018.33;2144267;83;20145;-65
2021/01/09 10:17:03;;;;;;;;;;;;;;;0.46;86.39;99017.94;2144153;83;20562;-64
2021/01/09 10:20:05;;;;;;;;;;;;;;;0.43;86.58;99019.28;2143914;83;20223;-64
2021/01/09 10:23:07;;;;;;;;;;;;;;;0.40;86.56;99012.44;2143966;83;20248;-65
2021/01/09 10:26:10;;;;;;;;;;;;;;;0.40;86.61;99012.89;2144009;83;20502;-64
2021/01/09 10:29:12;;;;;;;;;;;;;;;0.42;86.64;99015.02;2144049;83;20495;-64
2021/01/09 10:32:14;;;;;;;;;;;;;;;0.46;86.60;99017.94;2116903;83;20259;-64
2021/01/09 10:35:16;;;;;;;;;;;;;;;0.47;86.53;99015.78;2143930;83;20231;-64
2021/01/09 10:38:18;;;;;;;;;;;;;;;0.49;86.47;99010.17;2116942;83;20223;-64
2021/01/09 10:41:20;;;;;;;;;;;;;;;0.54;86.39;99018.67;2143854;83;20243;-64
2021/01/09 10:44:23;;;;;;;;;;;;;;;0.53;86.49;99014.83;2143905;83;20239;-64
2021/01/09 10:47:25;;;;;;;;;;;;;;;0.50;86.39;99014.02;2143922;83;20240;-64
2021/01/09 10:50:27;;;;;;;;;;;;;;;0.46;86.63;99013.65;2144338;83;20231;-65
2021/01/09 10:53:30;;;;;;;;;;;;;;;0.46;86.81;99021.81;2144307;83;20124;-64
2021/01/09 10:56:32;;;;;;;;;;;;;;;0.49;86.70;99014.88;2143992;83;20461;-64
2021/01/09 10:59:34;;;;;;;;;;;;;;;0.46;86.80;99016.65;2143859;83;20160;-64
2021/01/09 11:02:37;;;;;;;;;;;;;;;0.42;87.14;99019.73;2143994;83;20518;-65
2021/01/09 11:05:41;;;;;;;;;;;;;;;0.43;87.25;99020.58;2143864;83;20136;-65
2021/01/09 11:08:43;;;;;;;;;;;;;;;0.44;87.17;99021.84;2144107;83;20227;-64
2021/01/09 11:11:45;;;;;;;;;;;;;;;0.52;87.10;99016.56;2144320;83;20227;-65
2021/01/09 11:14:47;;;;;;;;;;;;;;;0.60;86.83;99012.09;2143833;83;20227;-64
2021/01/09 11:17:49;;;;;;;;;;;;;;;0.67;86.54;99013.69;2144004;83;20497;-64
2021/01/09 11:20:52;;;;;;;;;;;;;;;0.70;86.47;99012.80;2116987;83;20503;-64
2021/01/09 11:23:55;;;;;;;;;;;;;;;0.72;86.08;99012.34;2143986;83;20427;-64
2021/01/09 11:26:57;;;;;;;;;;;;;;;0.74;86.25;99013.61;2144108;83;20227;-64
2021/01/09 11:29:59;;;;;;;;;;;;;;;0.74;86.17;99019.61;2144305;83;20133;-64
2021/01/09 11:33:02;;;;;;;;;;;;;;;0.71;86.25;99021.41;2143733;83;20143;-64
2021/01/09 11:36:04;;;;;;;;;;;;;;;0.70;86.40;99023.13;2143974;83;20558;-64
2021/01/09 11:39:06;;;;;;;;;;;;;;;0.71;86.35;99020.12;2143842;83;20164;-68
2021/01/09 11:42:09;;;;;;;;;;;;;;;0.70;86.32;99021.83;2143908;83;20506;-66
2021/01/09 11:45:11;;;;;;;;;;;;;;;0.66;86.44;99017.59;2143939;83;20517;-68
2021/01/09 11:48:16;;;;;;;;;;;;;;;0.63;86.48;99018.95;2143827;83;20152;-66
2021/01/09 11:51:18;;;;;;;;;;;;;;;0.64;86.17;99027.11;2144581;83;20145;-68
2021/01/09 11:54:22;;;;;;;;;;;;;;;0.66;86.30;99024.05;2143950;83;20535;-67
2021/01/09 11:57:24;;;;;;;;;;;;;;;0.65;85.90;99028.38;2144032;83;20288;-67
2021/01/09 12:00:26;;;;;;;;;;;;;;;0.69;86.09;99022.28;2143756;83;20256;-66
2021/01/09 12:03:28;;;;;;;;;;;;;;;0.73;85.92;99025.64;2143840;83;20124;-64
2021/01/09 12:06:30;;;;;;;;;;;;;;;0.73;85.83;99024.80;2144187;83;20247;-66
2021/01/09 12:09:32;;;;;;;;;;;;;;;0.67;85.93;99024.02;2144080;83;20498;-64
2021/01/09 12:12:35;;;;;;;;;;;;;;;0.60;86.02;99028.88;2143932;83;20569;-65
2021/01/09 12:15:37;;;;;;;;;;;;;;;0.53;86.29;99027.28;2144180;83;20136;-64
2021/01/09 12:18:39;;;;;;;;;;;;;;;0.48;86.71;99031.69;2144019;83;20270;-66
2021/01/09 12:21:42;;;;;;;;;;;;;;;0.44;87.00;99027.00;2143995;81;20235;-70
2021/01/09 12:24:44;;;;;;;;;;;;;;;0.38;87.23;99032.27;2143948;83;20271;-65
2021/01/09 12:27:46;;;;;;;;;;;;;;;0.32;87.51;99038.38;2143797;83;20526;-65
2021/01/09 12:30:49;;;;;;;;;;;;;;;0.32;87.92;99034.95;2144002;83;20514;-64
2021/01/09 12:33:51;;;;;;;;;;;;;;;0.33;87.74;99037.93;2144154;83;20223;-64
2021/01/09 12:36:53;;;;;;;;;;;;;;;0.34;87.55;99037.94;2143759;83;20157;-64
2021/01/09 12:39:55;;;;;;;;;;;;;;;0.33;87.67;99041.39;2144239;83;20243;-65
2021/01/09 12:42:57;;;;;;;;;;;;;;;0.36;87.71;99044.78;2144151;83;20160;-65
2021/01/09 12:45:59;;;;;;;;;;;;;;;0.34;87.68;99039.23;2143795;83;20448;-64
2021/01/09 12:49:02;;;;;;;;;;;;;;;0.36;87.77;99043.48;2144261;83;20223;-65
2021/01/09 12:52:04;;;;;;;;;;;;;;;0.38;87.74;99044.33;2143911;83;20494;-64
2021/01/09 12:55:06;;;;;;;;;;;;;;;0.35;87.78;99046.52;2148697;82;20256;-65
2021/01/09 12:58:08;;;;;;;;;;;;;;;0.30;88.07;99045.73;2144661;82;20287;-65
2021/01/09 13:01:10;;;;;;;;;;;;;;;0.26;88.07;99041.06;2142617;83;20286;-65
2021/01/09 13:04:12;;;;;;;;;;;;;;;0.24;88.04;99040.67;2143443;83;20499;-64
2021/01/09 13:07:14;;;;;;;;;;;;;;;0.21;88.13;99057.05;2143791;83;20141;-65
2021/01/09 13:10:17;;;;;;;;;;;;;;;0.16;88.50;99053.70;2143909;83;20495;-67
2021/01/09 13:13:19;;;;;;;;;;;;;;;0.11;88.41;99049.03;2144088;83;20491;-64
2021/01/09 13:16:21;;;;;;;;;;;;;;;0.12;88.48;99050.75;2144213;83;20124;-64
2021/01/09 13:19:24;;;;;;;;;;;;;;;0.12;88.48;99057.20;2117114;83;20188;-65
2021/01/09 13:22:26;;;;;;;;;;;;;;;0.14;88.25;99052.85;2137976;82;20236;-65
2021/01/09 13:25:28;;;;;;;;;;;;;;;0.14;88.32;99061.47;2127132;84;20228;-64
2021/01/09 13:28:32;;;;;;;;;;;;;;;0.15;88.31;99062.30;2127711;83;20140;-63
2021/01/09 13:31:34;;;;;;;;;;;;;;;0.15;88.31;99061.02;2127440;83;20200;-64
2021/01/09 13:34:36;;;;;;;;;;;;;;;0.17;88.09;99061.83;2127367;84;20153;-66
2021/01/09 13:37:38;;;;;;;;;;;;;;;0.16;87.76;99074.34;2127575;84;20236;-64
2021/01/09 13:40:40;;;;;;;;;;;;;;;0.14;87.96;99076.07;2127058;83;20169;-64
2021/01/09 13:43:42;;;;;;;;;;;;;;;0.11;87.95;99078.25;2127339;84;20228;-64
2021/01/09 13:46:44;;;;;;;;;;;;;;;0.05;87.78;99082.22;2127064;84;20149;-65
2021/01/09 13:49:46;;;;;;;;;;;;;;;-0.01;87.91;99083.60;2127121;83;20256;-64
2021/01/09 13:52:51;;;;;;;;;;;;;;;-0.05;88.12;99081.48;2127209;83;20156;-65
2021/01/09 13:55:52;;;;;;;;;;;;;;;-0.08;88.06;99091.84;2127577;83;20125;-64
2021/01/09 13:58:54;;;;;;;;;;;;;;;-0.14;88.29;99089.36;2127219;83;20495;-66
2021/01/09 14:01:57;;;;;;;;;;;;;;;-0.13;88.42;99099.23;2127037;83;20228;-64
2021/01/09 14:04:59;;;;;;;;;;;;;;;-0.15;88.65;99100.98;2127225;84;20243;-65
2021/01/09 14:08:01;;;;;;;;;;;;;;;-0.17;88.58;99104.88;2127117;83;20224;-66
2021/01/09 14:11:03;;;;;;;;;;;;;;;-0.20;88.83;99103.63;2127178;84;20419;-65
2021/01/09 14:14:07;;;;;;;;;;;;;;;-0.22;88.30;99104.07;2127306;83;20161;-64
2021/01/09 14:17:09;;;;;;;;;;;;;;;-0.26;88.53;99119.16;2127168;84;20407;-65
2021/01/09 14:20:11;;;;;;;;;;;;;;;-0.29;88.56;99116.63;2127067;84;20235;-64
2021/01/09 14:23:13;;;;;;;;;;;;;;;-0.32;88.26;99124.39;2135916;83;20275;-64
2021/01/09 14:26:16;;;;;;;;;;;;;;;-0.38;88.35;99123.59;2144032;83;20503;-65
2021/01/09 14:29:18;;;;;;;;;;;;;;;-0.37;88.32;99124.46;2144166;83;20498;-68
2021/01/09 14:32:20;;;;;;;;;;;;;;;-0.38;88.33;99130.48;2143896;83;20228;-65
2021/01/09 14:35:23;;;;;;;;;;;;;;;-0.39;88.26;99124.48;2144021;83;20522;-71
2021/01/09 14:38:29;;;;;;;;;;;;;;;-0.39;87.41;99140.36;2143919;83;20243;-67
2021/01/09 14:41:30;;;;;;;;;;;;;;;-0.42;87.87;99127.52;2143719;83;20495;-65
2021/01/09 14:44:32;;;;;;;;;;;;;;;-0.44;88.00;99135.27;2144120;83;20248;-65
2021/01/09 14:47:34;;;;;;;;;;;;;;;-0.44;88.13;99130.55;2144240;83;20227;-65
2021/01/09 14:50:36;;;;;;;;;;;;;;;-0.46;88.09;99133.16;2143875;83;20235;-65
2021/01/09 14:53:39;;;;;;;;;;;;;;;-0.47;87.94;99148.19;2143907;83;20236;-66
2021/01/09 14:56:41;;;;;;;;;;;;;;;-0.50;88.19;99149.52;2116952;83;20230;-64
2021/01/09 14:59:43;;;;;;;;;;;;;;;-0.49;88.50;99151.20;2143884;83;20152;-64
2021/01/09 15:02:45;;;;;;;;;;;;;;;-0.50;88.67;99144.77;2143816;83;20226;-66
2021/01/09 15:05:47;;;;;;;;;;;;;;;-0.51;88.91;99149.09;2143898;83;20515;-64
2021/01/09 15:08:49;;;;;;;;;;;;;;;-0.52;89.12;99152.53;2143892;83;20228;-64
2021/01/09 15:11:51;;;;;;;;;;;;;;;-0.58;89.24;99166.33;2144005;83;20136;-65
2021/01/09 15:14:54;;;;;;;;;;;;;;;-0.63;89.71;99157.81;2143889;83;20192;-64
2021/01/09 15:17:56;;;;;;;;;;;;;;;-0.63;89.31;99174.97;2144334;83;20136;-64
2021/01/09 15:20:58;;;;;;;;;;;;;;;-0.65;89.68;99168.55;2144063;83;20495;-64
2021/01/09 15:24:00;;;;;;;;;;;;;;;-0.66;89.40;99167.28;2143830;83;20148;-64
2021/01/09 15:27:03;;;;;;;;;;;;;;;-0.68;89.86;99175.47;2143985;83;20491;-64
2021/01/09 15:30:05;;;;;;;;;;;;;;;-0.68;89.82;99174.18;2143877;83;20124;-64
2021/01/09 15:33:08;;;;;;;;;;;;;;;-0.69;89.61;99178.45;2144124;83;20125;-64
2021/01/09 15:36:10;;;;;;;;;;;;;;;-0.70;89.18;99186.63;2144244;83;20254;-64
2021/01/09 15:39:12;;;;;;;;;;;;;;;-0.70;89.17;99187.92;2143977;83;20578;-64
2021/01/09 15:42:15;;;;;;;;;;;;;;;-0.67;88.81;99188.78;2143933;83;20498;-64
2021/01/09 15:45:17;;;;;;;;;;;;;;;-0.69;88.94;99195.20;2144196;83;20224;-64
2021/01/09 15:48:19;;;;;;;;;;;;;;;-0.69;88.51;99197.78;2144075;83;20494;-64
2021/01/09 15:51:21;;;;;;;;;;;;;;;-0.70;88.50;99208.53;2143840;83;20140;-64